sensor_id;sensor_type;location;lat;lon;timestamp;P1;durP1;ratioP1;P2;durP2;ratioP2
75730;SDS011;64350;47.450;19.124;2022-12-20T05:43:07;38.03;;;15.00;;
75730;SDS011;64350;47.450;19.124;2022-12-20T05:45:33;38.97;;;15.27;;
75730;SDS011;64350;47.450;19.124;2022-12-20T05:47:59;33.63;;;15.50;;
75730;SDS011;64350;47.450;19.124;2022-12-20T05:50:24;38.80;;;16.60;;
75730;SDS011;64350;47.450;19.124;2022-12-20T05:52:50;39.50;;;15.33;;
75730;SDS011;64350;47.450;19.124;2022-12-20T05:55:15;36.47;;;14.37;;
75730;SDS011;64350;47.450;19.124;2022-12-20T05:57:41;40.38;;;15.77;;
75730;SDS011;64350;47.450;19.124;2022-12-20T06:00:06;43.53;;;16.23;;
75730;SDS011;64350;47.450;19.124;2022-12-20T06:02:32;36.72;;;14.80;;
75730;SDS011;64350;47.450;19.124;2022-12-20T06:04:58;37.17;;;15.33;;
75730;SDS011;64350;47.450;19.124;2022-12-20T06:07:23;30.57;;;12.30;;
75730;SDS011;64350;47.450;19.124;2022-12-20T06:09:49;34.05;;;14.10;;
75730;SDS011;64350;47.450;19.124;2022-12-20T06:12:14;34.03;;;14.20;;
75730;SDS011;64350;47.450;19.124;2022-12-20T06:14:40;39.87;;;15.40;;
75730;SDS011;64350;47.450;19.124;2022-12-20T06:17:05;32.53;;;12.85;;
75730;SDS011;64350;47.450;19.124;2022-12-20T06:19:30;23.10;;;8.50;;
75730;SDS011;64350;47.450;19.124;2022-12-20T06:21:56;35.23;;;13.00;;
75730;SDS011;64350;47.450;19.124;2022-12-20T06:24:21;26.00;;;11.07;;
75730;SDS011;64350;47.450;19.124;2022-12-20T06:26:49;31.42;;;12.90;;
75730;SDS011;64350;47.450;19.124;2022-12-20T06:29:15;29.10;;;11.10;;
75730;SDS011;64350;47.450;19.124;2022-12-20T06:31:42;35.83;;;14.13;;
75730;SDS011;64350;47.450;19.124;2022-12-20T06:34:07;19.17;;;8.73;;
75730;SDS011;64350;47.450;19.124;2022-12-20T06:36:33;22.58;;;8.50;;
75730;SDS011;64350;47.450;19.124;2022-12-20T06:38:58;34.27;;;14.67;;
75730;SDS011;64350;47.450;19.124;2022-12-20T06:41:24;34.17;;;13.43;;
75730;SDS011;64350;47.450;19.124;2022-12-20T06:43:49;29.27;;;11.73;;
75730;SDS011;64350;47.450;19.124;2022-12-20T06:46:14;36.10;;;14.80;;
75730;SDS011;64350;47.450;19.124;2022-12-20T06:48:40;32.67;;;13.90;;
75730;SDS011;64350;47.450;19.124;2022-12-20T06:51:05;30.97;;;13.87;;
75730;SDS011;64350;47.450;19.124;2022-12-20T06:53:31;34.83;;;12.73;;
75730;SDS011;64350;47.450;19.124;2022-12-20T06:55:56;38.03;;;15.30;;
75730;SDS011;64350;47.450;19.124;2022-12-20T06:58:22;36.80;;;14.73;;
75730;SDS011;64350;47.450;19.124;2022-12-20T07:00:47;38.87;;;15.67;;
75730;SDS011;64350;47.450;19.124;2022-12-20T07:03:13;35.13;;;15.27;;
75730;SDS011;64350;47.450;19.124;2022-12-20T07:05:38;37.70;;;15.80;;
75730;SDS011;64350;47.450;19.124;2022-12-20T07:08:04;24.87;;;10.97;;
75730;SDS011;64350;47.450;19.124;2022-12-20T07:10:32;51.40;;;16.70;;
75730;SDS011;64350;47.450;19.124;2022-12-20T07:12:58;35.45;;;15.55;;
75730;SDS011;64350;47.450;19.124;2022-12-20T07:15:23;33.07;;;13.27;;
75730;SDS011;64350;47.450;19.124;2022-12-20T07:17:49;31.12;;;12.77;;
75730;SDS011;64350;47.450;19.124;2022-12-20T07:20:15;29.73;;;12.85;;
75730;SDS011;64350;47.450;19.124;2022-12-20T07:22:41;36.13;;;15.57;;
75730;SDS011;64350;47.450;19.124;2022-12-20T07:25:06;30.93;;;11.60;;
75730;SDS011;64350;47.450;19.124;2022-12-20T07:27:32;35.95;;;14.45;;
75730;SDS011;64350;47.450;19.124;2022-12-20T07:29:57;27.80;;;13.05;;
75730;SDS011;64350;47.450;19.124;2022-12-20T07:32:23;40.47;;;16.30;;
75730;SDS011;64350;47.450;19.124;2022-12-20T07:34:48;36.07;;;14.53;;
75730;SDS011;64350;47.450;19.124;2022-12-20T07:37:13;23.80;;;9.80;;
75730;SDS011;64350;47.450;19.124;2022-12-20T07:39:39;33.73;;;13.53;;
75730;SDS011;64350;47.450;19.124;2022-12-20T07:42:06;38.72;;;15.63;;
75730;SDS011;64350;47.450;19.124;2022-12-20T07:44:31;17.12;;;7.80;;
75730;SDS011;64350;47.450;19.124;2022-12-20T07:46:57;37.90;;;15.50;;
75730;SDS011;64350;47.450;19.124;2022-12-20T07:49:22;33.80;;;15.10;;
75730;SDS011;64350;47.450;19.124;2022-12-20T07:51:49;37.17;;;15.63;;
75730;SDS011;64350;47.450;19.124;2022-12-20T07:54:17;36.72;;;15.18;;
75730;SDS011;64350;47.450;19.124;2022-12-20T07:56:46;35.20;;;14.93;;
75730;SDS011;64350;47.450;19.124;2022-12-20T07:59:15;33.78;;;13.75;;
75730;SDS011;64350;47.450;19.124;2022-12-20T08:01:42;27.63;;;11.37;;
75730;SDS011;64350;47.450;19.124;2022-12-20T08:04:17;34.63;;;14.25;;
75730;SDS011;64350;47.450;19.124;2022-12-20T08:06:43;18.20;;;7.68;;
75730;SDS011;64350;47.450;19.124;2022-12-20T08:09:10;35.08;;;14.43;;
75730;SDS011;64350;47.450;19.124;2022-12-20T08:11:39;34.05;;;15.07;;
75730;SDS011;64350;47.450;19.124;2022-12-20T08:14:06;22.57;;;9.77;;
75730;SDS011;64350;47.450;19.124;2022-12-20T08:16:33;29.52;;;13.65;;
75730;SDS011;64350;47.450;19.124;2022-12-20T08:18:58;25.98;;;11.98;;
75730;SDS011;64350;47.450;19.124;2022-12-20T08:21:24;29.93;;;12.30;;
75730;SDS011;64350;47.450;19.124;2022-12-20T08:23:49;25.93;;;10.97;;
75730;SDS011;64350;47.450;19.124;2022-12-20T08:26:15;27.20;;;11.57;;
75730;SDS011;64350;47.450;19.124;2022-12-20T08:28:41;20.05;;;10.05;;
75730;SDS011;64350;47.450;19.124;2022-12-20T08:31:10;23.60;;;10.88;;
75730;SDS011;64350;47.450;19.124;2022-12-20T08:33:37;20.97;;;9.33;;
75730;SDS011;64350;47.450;19.124;2022-12-20T08:36:05;28.80;;;12.15;;
75730;SDS011;64350;47.450;19.124;2022-12-20T08:38:32;15.52;;;6.45;;
75730;SDS011;64350;47.450;19.124;2022-12-20T08:41:01;28.07;;;12.67;;
75730;SDS011;64350;47.450;19.124;2022-12-20T08:43:37;31.73;;;12.75;;
75730;SDS011;64350;47.450;19.124;2022-12-20T08:46:03;27.95;;;11.63;;
75730;SDS011;64350;47.450;19.124;2022-12-20T08:48:29;22.90;;;9.07;;
75730;SDS011;64350;47.450;19.124;2022-12-20T08:50:55;31.50;;;13.80;;
75730;SDS011;64350;47.450;19.124;2022-12-20T08:53:21;31.17;;;13.35;;
75730;SDS011;64350;47.450;19.124;2022-12-20T08:55:47;30.13;;;12.60;;
75730;SDS011;64350;47.450;19.124;2022-12-20T08:58:12;26.17;;;11.53;;
75730;SDS011;64350;47.450;19.124;2022-12-20T09:00:41;21.73;;;8.23;;
75730;SDS011;64350;47.450;19.124;2022-12-20T09:03:07;30.37;;;13.68;;
75730;SDS011;64350;47.450;19.124;2022-12-20T09:05:33;17.80;;;8.33;;
75730;SDS011;64350;47.450;19.124;2022-12-20T09:07:59;30.80;;;12.73;;
75730;SDS011;64350;47.450;19.124;2022-12-20T09:10:24;16.93;;;6.57;;
75730;SDS011;64350;47.450;19.124;2022-12-20T09:12:50;18.00;;;7.33;;
75730;SDS011;64350;47.450;19.124;2022-12-20T09:15:15;19.13;;;7.20;;
75730;SDS011;64350;47.450;19.124;2022-12-20T09:17:40;18.73;;;8.80;;
75730;SDS011;64350;47.450;19.124;2022-12-20T09:20:06;30.23;;;13.37;;
75730;SDS011;64350;47.450;19.124;2022-12-20T09:22:32;30.73;;;12.27;;
75730;SDS011;64350;47.450;19.124;2022-12-20T09:24:57;15.93;;;7.03;;
75730;SDS011;64350;47.450;19.124;2022-12-20T09:27:31;27.02;;;12.35;;
75730;SDS011;64350;47.450;19.124;2022-12-20T09:29:56;32.37;;;13.60;;
75730;SDS011;64350;47.450;19.124;2022-12-20T09:32:21;30.83;;;13.27;;
75730;SDS011;64350;47.450;19.124;2022-12-20T09:34:47;28.53;;;12.40;;
75730;SDS011;64350;47.450;19.124;2022-12-20T09:37:12;20.93;;;9.07;;
75730;SDS011;64350;47.450;19.124;2022-12-20T09:39:37;27.17;;;11.33;;
75730;SDS011;64350;47.450;19.124;2022-12-20T09:42:05;26.87;;;12.97;;
75730;SDS011;64350;47.450;19.124;2022-12-20T09:44:34;27.83;;;12.55;;
75730;SDS011;64350;47.450;19.124;2022-12-20T09:47:03;26.50;;;11.23;;
75730;SDS011;64350;47.450;19.124;2022-12-20T09:49:30;25.52;;;12.23;;
75730;SDS011;64350;47.450;19.124;2022-12-20T09:57:19;27.08;;;12.05;;
75730;SDS011;64350;47.450;19.124;2022-12-20T09:59:48;27.00;;;12.60;;
75730;SDS011;64350;47.450;19.124;2022-12-20T10:02:15;24.30;;;10.53;;
75730;SDS011;64350;47.450;19.124;2022-12-20T10:04:47;23.80;;;10.63;;
75730;SDS011;64350;47.450;19.124;2022-12-20T10:12:46;25.60;;;11.63;;
75730;SDS011;64350;47.450;19.124;2022-12-20T10:15:20;27.10;;;12.57;;
75730;SDS011;64350;47.450;19.124;2022-12-20T10:23:10;16.70;;;7.63;;
75730;SDS011;64350;47.450;19.124;2022-12-20T10:25:40;23.83;;;11.57;;
75730;SDS011;64350;47.450;19.124;2022-12-20T10:28:13;27.73;;;11.52;;
75730;SDS011;64350;47.450;19.124;2022-12-20T10:30:39;27.42;;;12.27;;
75730;SDS011;64350;47.450;19.124;2022-12-20T10:33:07;20.03;;;9.27;;
75730;SDS011;64350;47.450;19.124;2022-12-20T10:35:41;15.18;;;6.95;;
75730;SDS011;64350;47.450;19.124;2022-12-20T10:38:08;22.80;;;11.27;;
75730;SDS011;64350;47.450;19.124;2022-12-20T10:40:39;26.67;;;11.20;;
75730;SDS011;64350;47.450;19.124;2022-12-20T10:43:20;26.00;;;11.68;;
75730;SDS011;64350;47.450;19.124;2022-12-20T10:46:00;20.00;;;9.77;;
75730;SDS011;64350;47.450;19.124;2022-12-20T10:48:37;16.37;;;8.60;;
75730;SDS011;64350;47.450;19.124;2022-12-20T10:56:29;26.83;;;12.68;;
75730;SDS011;64350;47.450;19.124;2022-12-20T10:59:02;24.53;;;12.13;;
75730;SDS011;64350;47.450;19.124;2022-12-20T11:01:42;23.90;;;11.35;;
75730;SDS011;64350;47.450;19.124;2022-12-20T11:04:26;18.42;;;8.73;;
75730;SDS011;64350;47.450;19.124;2022-12-20T11:06:52;26.12;;;9.70;;
75730;SDS011;64350;47.450;19.124;2022-12-20T11:12:00;21.75;;;9.75;;
75730;SDS011;64350;47.450;19.124;2022-12-20T11:14:26;24.23;;;11.07;;
75730;SDS011;64350;47.450;19.124;2022-12-20T11:16:54;23.25;;;10.77;;
75730;SDS011;64350;47.450;19.124;2022-12-20T11:19:33;25.48;;;12.00;;
75730;SDS011;64350;47.450;19.124;2022-12-20T11:22:16;24.63;;;11.13;;
75730;SDS011;64350;47.450;19.124;2022-12-20T11:42:13;26.33;;;11.70;;
75730;SDS011;64350;47.450;19.124;2022-12-20T11:44:51;23.05;;;12.15;;
75730;SDS011;64350;47.450;19.124;2022-12-20T11:52:40;18.73;;;9.05;;
75730;SDS011;64350;47.450;19.124;2022-12-20T11:55:31;25.17;;;12.13;;
75730;SDS011;64350;47.450;19.124;2022-12-20T12:00:31;24.90;;;12.85;;
75730;SDS011;64350;47.450;19.124;2022-12-20T12:03:12;29.37;;;13.70;;
75730;SDS011;64350;47.450;19.124;2022-12-20T12:05:43;28.80;;;13.35;;
75730;SDS011;64350;47.450;19.124;2022-12-20T12:08:20;26.45;;;11.48;;
75730;SDS011;64350;47.450;19.124;2022-12-20T12:10:57;25.55;;;11.35;;
75730;SDS011;64350;47.450;19.124;2022-12-20T12:13:26;22.42;;;11.00;;
75730;SDS011;64350;47.450;19.124;2022-12-20T12:15:54;21.33;;;10.17;;
75730;SDS011;64350;47.450;19.124;2022-12-20T12:18:32;21.10;;;9.68;;
75730;SDS011;64350;47.450;19.124;2022-12-20T12:26:21;27.58;;;11.93;;
75730;SDS011;64350;47.450;19.124;2022-12-20T12:28:55;17.60;;;8.50;;
75730;SDS011;64350;47.450;19.124;2022-12-20T12:31:37;22.48;;;9.90;;
75730;SDS011;64350;47.450;19.124;2022-12-20T12:43:27;26.37;;;12.23;;
75730;SDS011;64350;47.450;19.124;2022-12-20T12:46:07;27.58;;;12.02;;
75730;SDS011;64350;47.450;19.124;2022-12-20T12:48:39;18.27;;;8.27;;
75730;SDS011;64350;47.450;19.124;2022-12-20T12:51:07;27.23;;;10.63;;
75730;SDS011;64350;47.450;19.124;2022-12-20T12:56:46;27.67;;;11.90;;
75730;SDS011;64350;47.450;19.124;2022-12-20T13:04:08;21.85;;;8.70;;
75730;SDS011;64350;47.450;19.124;2022-12-20T13:11:51;25.88;;;12.20;;
75730;SDS011;64350;47.450;19.124;2022-12-20T13:16:50;28.58;;;11.95;;
75730;SDS011;64350;47.450;19.124;2022-12-20T13:19:18;20.95;;;9.23;;
75730;SDS011;64350;47.450;19.124;2022-12-20T13:27:03;29.23;;;11.63;;
75730;SDS011;64350;47.450;19.124;2022-12-20T13:29:50;28.20;;;11.00;;
75730;SDS011;64350;47.450;19.124;2022-12-20T13:40:20;25.35;;;10.93;;
75730;SDS011;64350;47.450;19.124;2022-12-20T13:42:50;24.20;;;9.37;;
75730;SDS011;64350;47.450;19.124;2022-12-20T13:45:17;20.02;;;8.88;;
75730;SDS011;64350;47.450;19.124;2022-12-20T13:47:45;24.08;;;10.85;;
75730;SDS011;64350;47.450;19.124;2022-12-20T13:53:01;29.10;;;11.07;;
75730;SDS011;64350;47.450;19.124;2022-12-20T13:55:39;26.70;;;10.88;;
75730;SDS011;64350;47.450;19.124;2022-12-20T13:58:11;27.75;;;11.40;;
75730;SDS011;64350;47.450;19.124;2022-12-20T14:00:38;28.23;;;10.98;;
75730;SDS011;64350;47.450;19.124;2022-12-20T14:03:04;22.13;;;9.77;;
75730;SDS011;64350;47.450;19.124;2022-12-20T14:05:33;25.23;;;11.67;;
75730;SDS011;64350;47.450;19.124;2022-12-20T14:08:05;25.55;;;9.95;;
75730;SDS011;64350;47.450;19.124;2022-12-20T14:10:33;23.27;;;10.63;;
75730;SDS011;64350;47.450;19.124;2022-12-20T14:12:59;26.92;;;10.23;;
75730;SDS011;64350;47.450;19.124;2022-12-20T14:17:51;26.40;;;11.48;;
75730;SDS011;64350;47.450;19.124;2022-12-20T14:20:19;30.97;;;12.03;;
75730;SDS011;64350;47.450;19.124;2022-12-20T14:22:54;30.15;;;12.60;;
75730;SDS011;64350;47.450;19.124;2022-12-20T14:25:26;28.27;;;12.40;;
75730;SDS011;64350;47.450;19.124;2022-12-20T14:28:04;33.75;;;12.77;;
75730;SDS011;64350;47.450;19.124;2022-12-20T14:30:50;26.42;;;12.48;;
75730;SDS011;64350;47.450;19.124;2022-12-20T14:33:27;25.50;;;9.73;;
75730;SDS011;64350;47.450;19.124;2022-12-20T14:35:54;33.35;;;13.27;;
75730;SDS011;64350;47.450;19.124;2022-12-20T14:38:21;33.40;;;13.93;;
75730;SDS011;64350;47.450;19.124;2022-12-20T14:40:55;28.03;;;13.40;;
75730;SDS011;64350;47.450;19.124;2022-12-20T14:43:25;28.87;;;13.50;;
75730;SDS011;64350;47.450;19.124;2022-12-20T14:46:05;19.43;;;7.80;;
75730;SDS011;64350;47.450;19.124;2022-12-20T14:48:32;23.42;;;10.63;;
75730;SDS011;64350;47.450;19.124;2022-12-20T14:50:57;33.67;;;14.23;;
75730;SDS011;64350;47.450;19.124;2022-12-20T14:53:23;32.38;;;14.40;;
75730;SDS011;64350;47.450;19.124;2022-12-20T14:55:51;17.93;;;8.13;;
75730;SDS011;64350;47.450;19.124;2022-12-20T14:58:22;16.35;;;7.62;;
75730;SDS011;64350;47.450;19.124;2022-12-20T15:00:56;28.20;;;11.57;;
75730;SDS011;64350;47.450;19.124;2022-12-20T15:03:22;28.17;;;12.80;;
75730;SDS011;64350;47.450;19.124;2022-12-20T15:05:48;28.60;;;12.23;;
75730;SDS011;64350;47.450;19.124;2022-12-20T15:08:28;36.85;;;16.52;;
75730;SDS011;64350;47.450;19.124;2022-12-20T15:13:36;35.65;;;16.23;;
75730;SDS011;64350;47.450;19.124;2022-12-20T15:16:11;37.50;;;15.70;;
75730;SDS011;64350;47.450;19.124;2022-12-20T15:18:47;38.40;;;15.45;;
75730;SDS011;64350;47.450;19.124;2022-12-20T15:23:46;41.70;;;18.27;;
75730;SDS011;64350;47.450;19.124;2022-12-20T15:26:14;37.50;;;17.08;;
75730;SDS011;64350;47.450;19.124;2022-12-20T15:28:40;33.47;;;13.80;;
75730;SDS011;64350;47.450;19.124;2022-12-20T15:31:07;33.93;;;14.97;;
75730;SDS011;64350;47.450;19.124;2022-12-20T15:33:34;39.45;;;16.45;;
75730;SDS011;64350;47.450;19.124;2022-12-20T15:35:59;42.83;;;18.23;;
75730;SDS011;64350;47.450;19.124;2022-12-20T15:38:25;42.15;;;19.25;;
75730;SDS011;64350;47.450;19.124;2022-12-20T15:40:52;43.80;;;20.33;;
75730;SDS011;64350;47.450;19.124;2022-12-20T15:43:20;41.60;;;19.40;;
75730;SDS011;64350;47.450;19.124;2022-12-20T15:45:47;45.12;;;19.00;;
75730;SDS011;64350;47.450;19.124;2022-12-20T15:48:16;46.25;;;19.92;;
75730;SDS011;64350;47.450;19.124;2022-12-20T15:50:43;39.80;;;17.98;;
75730;SDS011;64350;47.450;19.124;2022-12-20T15:53:14;36.83;;;16.00;;
75730;SDS011;64350;47.450;19.124;2022-12-20T15:55:40;39.63;;;17.02;;
75730;SDS011;64350;47.450;19.124;2022-12-20T15:58:06;46.30;;;19.65;;
75730;SDS011;64350;47.450;19.124;2022-12-20T16:00:32;36.87;;;18.00;;
75730;SDS011;64350;47.450;19.124;2022-12-20T16:03:00;38.17;;;17.27;;
75730;SDS011;64350;47.450;19.124;2022-12-20T16:05:26;25.43;;;11.23;;
75730;SDS011;64350;47.450;19.124;2022-12-20T16:07:51;41.45;;;15.57;;
75730;SDS011;64350;47.450;19.124;2022-12-20T16:10:16;41.93;;;17.17;;
75730;SDS011;64350;47.450;19.124;2022-12-20T16:12:42;28.30;;;13.20;;
75730;SDS011;64350;47.450;19.124;2022-12-20T16:15:12;42.43;;;18.23;;
75730;SDS011;64350;47.450;19.124;2022-12-20T16:17:43;40.60;;;17.45;;
75730;SDS011;64350;47.450;19.124;2022-12-20T16:20:09;40.33;;;16.03;;
75730;SDS011;64350;47.450;19.124;2022-12-20T16:22:35;39.30;;;17.45;;
75730;SDS011;64350;47.450;19.124;2022-12-20T16:25:00;32.80;;;14.77;;
75730;SDS011;64350;47.450;19.124;2022-12-20T16:27:26;40.27;;;18.53;;
75730;SDS011;64350;47.450;19.124;2022-12-20T16:29:51;41.23;;;18.37;;
75730;SDS011;64350;47.450;19.124;2022-12-20T16:32:17;38.33;;;17.80;;
75730;SDS011;64350;47.450;19.124;2022-12-20T16:34:45;43.97;;;19.83;;
75730;SDS011;64350;47.450;19.124;2022-12-20T16:37:13;42.45;;;18.75;;
75730;SDS011;64350;47.450;19.124;2022-12-20T16:39:38;44.13;;;19.47;;
75730;SDS011;64350;47.450;19.124;2022-12-20T16:42:10;39.50;;;18.07;;
75730;SDS011;64350;47.450;19.124;2022-12-20T16:44:37;29.12;;;13.40;;
75730;SDS011;64350;47.450;19.124;2022-12-20T16:47:06;42.30;;;18.45;;
75730;SDS011;64350;47.450;19.124;2022-12-20T16:49:32;33.23;;;15.87;;
75730;SDS011;64350;47.450;19.124;2022-12-20T16:51:57;40.00;;;17.87;;
75730;SDS011;64350;47.450;19.124;2022-12-20T16:54:22;40.43;;;16.17;;
75730;SDS011;64350;47.450;19.124;2022-12-20T16:56:49;41.17;;;17.90;;
75730;SDS011;64350;47.450;19.124;2022-12-20T16:59:19;41.78;;;17.90;;
75730;SDS011;64350;47.450;19.124;2022-12-20T17:01:44;45.20;;;20.23;;
75730;SDS011;64350;47.450;19.124;2022-12-20T17:04:13;49.83;;;21.12;;
75730;SDS011;64350;47.450;19.124;2022-12-20T17:06:40;46.65;;;20.17;;
75730;SDS011;64350;47.450;19.124;2022-12-20T17:09:07;42.30;;;18.97;;
75730;SDS011;64350;47.450;19.124;2022-12-20T17:11:33;37.85;;;16.65;;
75730;SDS011;64350;47.450;19.124;2022-12-20T17:13:58;42.37;;;18.83;;
75730;SDS011;64350;47.450;19.124;2022-12-20T17:16:24;43.28;;;18.80;;
75730;SDS011;64350;47.450;19.124;2022-12-20T17:18:52;48.45;;;20.17;;
75730;SDS011;64350;47.450;19.124;2022-12-20T17:23:56;33.75;;;14.82;;
75730;SDS011;64350;47.450;19.124;2022-12-20T17:26:22;38.73;;;18.00;;
75730;SDS011;64350;47.450;19.124;2022-12-20T17:28:50;41.37;;;17.83;;
75730;SDS011;64350;47.450;19.124;2022-12-20T17:33:50;42.33;;;18.67;;
75730;SDS011;64350;47.450;19.124;2022-12-20T17:36:16;44.65;;;20.30;;
75730;SDS011;64350;47.450;19.124;2022-12-20T17:38:42;47.57;;;19.53;;
75730;SDS011;64350;47.450;19.124;2022-12-20T17:41:41;44.58;;;21.30;;
75730;SDS011;64350;47.450;19.124;2022-12-20T17:44:00;48.70;;;20.63;;
75730;SDS011;64350;47.450;19.124;2022-12-20T17:46:26;48.03;;;21.65;;
75730;SDS011;64350;47.450;19.124;2022-12-20T17:48:52;46.10;;;20.42;;
75730;SDS011;64350;47.450;19.124;2022-12-20T17:51:22;51.73;;;21.70;;
75730;SDS011;64350;47.450;19.124;2022-12-20T17:53:50;46.10;;;20.37;;
75730;SDS011;64350;47.450;19.124;2022-12-20T17:56:19;47.38;;;20.95;;
75730;SDS011;64350;47.450;19.124;2022-12-20T17:58:49;45.10;;;19.55;;
75730;SDS011;64350;47.450;19.124;2022-12-20T18:03:49;39.70;;;18.08;;
75730;SDS011;64350;47.450;19.124;2022-12-20T18:06:15;51.95;;;21.15;;
75730;SDS011;64350;47.450;19.124;2022-12-20T18:08:41;44.13;;;20.47;;
75730;SDS011;64350;47.450;19.124;2022-12-20T18:11:09;48.47;;;20.87;;
75730;SDS011;64350;47.450;19.124;2022-12-20T18:13:35;50.85;;;22.13;;
75730;SDS011;64350;47.450;19.124;2022-12-20T18:16:04;45.50;;;20.88;;
75730;SDS011;64350;47.450;19.124;2022-12-20T18:18:30;46.92;;;20.42;;
75730;SDS011;64350;47.450;19.124;2022-12-20T18:21:03;51.63;;;21.67;;
75730;SDS011;64350;47.450;19.124;2022-12-20T18:23:32;49.13;;;20.62;;
75730;SDS011;64350;47.450;19.124;2022-12-20T18:26:06;45.97;;;20.23;;
75730;SDS011;64350;47.450;19.124;2022-12-20T18:28:39;44.45;;;20.30;;
75730;SDS011;64350;47.450;19.124;2022-12-20T18:31:08;43.95;;;20.48;;
75730;SDS011;64350;47.450;19.124;2022-12-20T18:33:35;47.42;;;21.70;;
75730;SDS011;64350;47.450;19.124;2022-12-20T18:38:33;41.97;;;17.37;;
75730;SDS011;64350;47.450;19.124;2022-12-20T18:41:02;48.45;;;20.00;;
75730;SDS011;64350;47.450;19.124;2022-12-20T18:43:32;45.67;;;21.27;;
75730;SDS011;64350;47.450;19.124;2022-12-20T18:46:02;47.72;;;21.35;;
75730;SDS011;64350;47.450;19.124;2022-12-20T18:48:28;37.10;;;15.75;;
75730;SDS011;64350;47.450;19.124;2022-12-20T18:50:54;48.43;;;19.97;;
75730;SDS011;64350;47.450;19.124;2022-12-20T18:53:19;49.17;;;20.27;;
75730;SDS011;64350;47.450;19.124;2022-12-20T18:55:45;44.63;;;20.07;;
75730;SDS011;64350;47.450;19.124;2022-12-20T18:58:10;47.23;;;19.97;;
75730;SDS011;64350;47.450;19.124;2022-12-20T19:00:37;44.65;;;19.45;;
75730;SDS011;64350;47.450;19.124;2022-12-20T19:03:03;46.10;;;18.85;;
75730;SDS011;64350;47.450;19.124;2022-12-20T19:05:31;41.20;;;16.17;;
75730;SDS011;64350;47.450;19.124;2022-12-20T19:07:57;42.53;;;19.17;;
75730;SDS011;64350;47.450;19.124;2022-12-20T19:10:22;51.20;;;21.57;;
75730;SDS011;64350;47.450;19.124;2022-12-20T19:12:48;50.83;;;20.93;;
75730;SDS011;64350;47.450;19.124;2022-12-20T19:15:13;49.23;;;21.00;;
75730;SDS011;64350;47.450;19.124;2022-12-20T19:17:38;49.77;;;20.43;;
75730;SDS011;64350;47.450;19.124;2022-12-20T19:20:04;47.78;;;20.35;;
75730;SDS011;64350;47.450;19.124;2022-12-20T19:22:30;42.75;;;18.98;;
75730;SDS011;64350;47.450;19.124;2022-12-20T19:24:55;46.90;;;19.50;;
75730;SDS011;64350;47.450;19.124;2022-12-20T19:27:21;46.20;;;19.70;;
75730;SDS011;64350;47.450;19.124;2022-12-20T19:29:47;47.42;;;19.12;;
75730;SDS011;64350;47.450;19.124;2022-12-20T19:32:13;46.17;;;20.60;;
75730;SDS011;64350;47.450;19.124;2022-12-20T19:34:39;41.00;;;16.37;;
75730;SDS011;64350;47.450;19.124;2022-12-20T19:37:05;52.22;;;19.80;;
75730;SDS011;64350;47.450;19.124;2022-12-20T19:39:30;43.57;;;19.80;;
75730;SDS011;64350;47.450;19.124;2022-12-20T19:41:55;39.53;;;17.73;;
75730;SDS011;64350;47.450;19.124;2022-12-20T19:44:21;44.67;;;20.43;;
75730;SDS011;64350;47.450;19.124;2022-12-20T19:46:46;44.28;;;19.42;;
75730;SDS011;64350;47.450;19.124;2022-12-20T19:49:12;47.03;;;19.90;;
75730;SDS011;64350;47.450;19.124;2022-12-20T19:51:38;49.97;;;20.62;;
75730;SDS011;64350;47.450;19.124;2022-12-20T19:54:04;45.70;;;19.53;;
75730;SDS011;64350;47.450;19.124;2022-12-20T19:56:30;41.33;;;19.80;;
75730;SDS011;64350;47.450;19.124;2022-12-20T19:58:57;44.72;;;19.42;;
75730;SDS011;64350;47.450;19.124;2022-12-20T20:01:23;43.10;;;19.30;;
75730;SDS011;64350;47.450;19.124;2022-12-20T20:03:51;42.80;;;19.47;;
75730;SDS011;64350;47.450;19.124;2022-12-20T20:06:20;43.60;;;19.48;;
75730;SDS011;64350;47.450;19.124;2022-12-20T20:08:45;43.50;;;19.45;;
75730;SDS011;64350;47.450;19.124;2022-12-20T20:11:13;43.70;;;19.75;;
75730;SDS011;64350;47.450;19.124;2022-12-20T20:13:39;41.63;;;18.80;;
75730;SDS011;64350;47.450;19.124;2022-12-20T20:16:05;45.30;;;18.50;;
75730;SDS011;64350;47.450;19.124;2022-12-20T20:18:31;41.77;;;19.30;;
75730;SDS011;64350;47.450;19.124;2022-12-20T20:20:58;45.88;;;19.75;;
75730;SDS011;64350;47.450;19.124;2022-12-20T20:23:28;46.60;;;20.88;;
75730;SDS011;64350;47.450;19.124;2022-12-20T20:25:54;49.77;;;20.80;;
75730;SDS011;64350;47.450;19.124;2022-12-20T20:28:21;51.30;;;21.85;;
75730;SDS011;64350;47.450;19.124;2022-12-20T20:30:47;49.67;;;20.75;;
75730;SDS011;64350;47.450;19.124;2022-12-20T20:33:13;50.38;;;21.98;;
75730;SDS011;64350;47.450;19.124;2022-12-20T20:35:38;46.90;;;20.15;;
75730;SDS011;64350;47.450;19.124;2022-12-20T20:38:04;48.60;;;20.10;;
75730;SDS011;64350;47.450;19.124;2022-12-20T20:40:30;45.58;;;21.02;;
75730;SDS011;64350;47.450;19.124;2022-12-20T20:42:56;43.53;;;20.00;;
75730;SDS011;64350;47.450;19.124;2022-12-20T20:45:22;43.47;;;19.80;;
75730;SDS011;64350;47.450;19.124;2022-12-20T20:47:47;42.23;;;19.23;;
75730;SDS011;64350;47.450;19.124;2022-12-20T20:50:13;42.62;;;18.10;;
75730;SDS011;64350;47.450;19.124;2022-12-20T20:52:38;49.50;;;21.73;;
75730;SDS011;64350;47.450;19.124;2022-12-20T20:55:06;50.03;;;20.48;;
75730;SDS011;64350;47.450;19.124;2022-12-20T20:57:32;52.70;;;22.25;;
75730;SDS011;64350;47.450;19.124;2022-12-20T20:59:58;50.47;;;20.43;;
75730;SDS011;64350;47.450;19.124;2022-12-20T21:02:23;38.73;;;18.03;;
75730;SDS011;64350;47.450;19.124;2022-12-20T21:04:49;40.93;;;18.67;;
75730;SDS011;64350;47.450;19.124;2022-12-20T21:07:15;41.40;;;19.48;;
75730;SDS011;64350;47.450;19.124;2022-12-20T21:09:41;41.93;;;17.93;;
75730;SDS011;64350;47.450;19.124;2022-12-20T21:12:06;46.08;;;20.02;;
75730;SDS011;64350;47.450;19.124;2022-12-20T21:14:31;44.37;;;20.13;;
75730;SDS011;64350;47.450;19.124;2022-12-20T21:16:57;43.47;;;20.07;;
75730;SDS011;64350;47.450;19.124;2022-12-20T21:19:22;46.27;;;19.53;;
75730;SDS011;64350;47.450;19.124;2022-12-20T21:21:48;46.25;;;20.05;;
75730;SDS011;64350;47.450;19.124;2022-12-20T21:24:13;43.13;;;19.47;;
75730;SDS011;64350;47.450;19.124;2022-12-20T21:26:39;45.83;;;19.90;;
75730;SDS011;64350;47.450;19.124;2022-12-20T21:29:05;46.97;;;20.30;;
75730;SDS011;64350;47.450;19.124;2022-12-20T21:31:30;46.03;;;20.37;;
75730;SDS011;64350;47.450;19.124;2022-12-20T21:33:56;53.10;;;22.70;;
75730;SDS011;64350;47.450;19.124;2022-12-20T21:36:22;49.38;;;21.52;;
75730;SDS011;64350;47.450;19.124;2022-12-20T21:38:48;52.00;;;22.40;;
75730;SDS011;64350;47.450;19.124;2022-12-20T21:41:18;49.53;;;20.67;;
75730;SDS011;64350;47.450;19.124;2022-12-20T21:43:45;52.30;;;23.50;;
75730;SDS011;64350;47.450;19.124;2022-12-20T21:46:10;46.70;;;19.65;;
75730;SDS011;64350;47.450;19.124;2022-12-20T21:48:39;49.07;;;20.50;;
75730;SDS011;64350;47.450;19.124;2022-12-20T21:51:10;48.15;;;20.42;;